sensor_id;sensor_type;location;lat;lon;timestamp;temperature;humidity
70269;DHT22;58514;48.398;-4.274;2022-12-10T00:01:38;3.60;99.90
70269;DHT22;58514;48.398;-4.274;2022-12-10T00:04:04;3.70;99.90
70269;DHT22;58514;48.398;-4.274;2022-12-10T00:06:31;3.70;99.90
70269;DHT22;58514;48.398;-4.274;2022-12-10T00:08:56;3.70;99.90
70269;DHT22;58514;48.398;-4.274;2022-12-10T00:11:22;3.70;99.90
70269;DHT22;58514;48.398;-4.274;2022-12-10T00:13:49;3.70;99.90
70269;DHT22;58514;48.398;-4.274;2022-12-10T00:16:15;3.70;99.90
70269;DHT22;58514;48.398;-4.274;2022-12-10T00:18:41;3.70;99.90
70269;DHT22;58514;48.398;-4.274;2022-12-10T00:21:08;3.70;99.90
70269;DHT22;58514;48.398;-4.274;2022-12-10T00:23:34;3.70;99.90
70269;DHT22;58514;48.398;-4.274;2022-12-10T00:26:07;3.70;99.90
70269;DHT22;58514;48.398;-4.274;2022-12-10T00:28:33;3.60;99.90
70269;DHT22;58514;48.398;-4.274;2022-12-10T00:31:06;3.60;99.90
70269;DHT22;58514;48.398;-4.274;2022-12-10T00:33:32;3.60;99.90
70269;DHT22;58514;48.398;-4.274;2022-12-10T00:36:06;3.60;99.90
70269;DHT22;58514;48.398;-4.274;2022-12-10T00:38:32;3.60;99.90
70269;DHT22;58514;48.398;-4.274;2022-12-10T00:40:58;3.50;99.90
70269;DHT22;58514;48.398;-4.274;2022-12-10T00:43:23;3.60;99.90
70269;DHT22;58514;48.398;-4.274;2022-12-10T00:45:49;3.50;99.90
70269;DHT22;58514;48.398;-4.274;2022-12-10T00:48:15;3.50;99.90
70269;DHT22;58514;48.398;-4.274;2022-12-10T00:50:40;3.50;99.90
70269;DHT22;58514;48.398;-4.274;2022-12-10T00:53:06;3.50;99.90
70269;DHT22;58514;48.398;-4.274;2022-12-10T00:55:31;3.50;99.90
70269;DHT22;58514;48.398;-4.274;2022-12-10T00:57:57;3.50;99.90
70269;DHT22;58514;48.398;-4.274;2022-12-10T01:00:22;3.50;99.90
70269;DHT22;58514;48.398;-4.274;2022-12-10T01:02:49;3.50;99.90
70269;DHT22;58514;48.398;-4.274;2022-12-10T01:05:15;3.50;99.90
70269;DHT22;58514;48.398;-4.274;2022-12-10T01:07:40;3.50;99.90
70269;DHT22;58514;48.398;-4.274;2022-12-10T01:10:06;3.40;99.90
70269;DHT22;58514;48.398;-4.274;2022-12-10T01:12:32;3.50;99.90
70269;DHT22;58514;48.398;-4.274;2022-12-10T01:14:57;3.40;99.90
70269;DHT22;58514;48.398;-4.274;2022-12-10T01:17:23;3.40;99.90
70269;DHT22;58514;48.398;-4.274;2022-12-10T01:19:48;3.40;99.90
70269;DHT22;58514;48.398;-4.274;2022-12-10T01:22:14;3.40;99.90
70269;DHT22;58514;48.398;-4.274;2022-12-10T01:24:39;3.40;99.90
70269;DHT22;58514;48.398;-4.274;2022-12-10T01:27:05;3.40;99.90
70269;DHT22;58514;48.398;-4.274;2022-12-10T01:29:31;3.40;99.90
70269;DHT22;58514;48.398;-4.274;2022-12-10T01:31:56;3.40;99.90
70269;DHT22;58514;48.398;-4.274;2022-12-10T01:34:22;3.40;99.90
70269;DHT22;58514;48.398;-4.274;2022-12-10T01:36:49;3.40;99.90
70269;DHT22;58514;48.398;-4.274;2022-12-10T01:39:16;3.40;99.90
70269;DHT22;58514;48.398;-4.274;2022-12-10T01:41:51;3.30;99.90
70269;DHT22;58514;48.398;-4.274;2022-12-10T01:46:44;3.30;99.90
70269;DHT22;58514;48.398;-4.274;2022-12-10T01:49:14;3.30;99.90
70269;DHT22;58514;48.398;-4.274;2022-12-10T01:51:40;3.30;99.90
70269;DHT22;58514;48.398;-4.274;2022-12-10T01:54:08;3.30;99.90
70269;DHT22;58514;48.398;-4.274;2022-12-10T01:57:17;3.20;99.90
70269;DHT22;58514;48.398;-4.274;2022-12-10T01:59:22;3.20;99.90
70269;DHT22;58514;48.398;-4.274;2022-12-10T02:07:06;3.10;99.90
70269;DHT22;58514;48.398;-4.274;2022-12-10T02:17:32;3.20;99.90
70269;DHT22;58514;48.398;-4.274;2022-12-10T02:22:44;3.30;99.90
70269;DHT22;58514;48.398;-4.274;2022-12-10T02:25:11;3.30;99.90
70269;DHT22;58514;48.398;-4.274;2022-12-10T02:27:44;3.30;99.90
70269;DHT22;58514;48.398;-4.274;2022-12-10T02:30:11;3.30;99.90
70269;DHT22;58514;48.398;-4.274;2022-12-10T02:32:38;3.30;99.90
70269;DHT22;58514;48.398;-4.274;2022-12-10T02:35:06;3.30;99.90
70269;DHT22;58514;48.398;-4.274;2022-12-10T02:37:36;3.20;99.90
70269;DHT22;58514;48.398;-4.274;2022-12-10T02:40:08;3.20;99.90
70269;DHT22;58514;48.398;-4.274;2022-12-10T02:42:36;3.20;99.90
70269;DHT22;58514;48.398;-4.274;2022-12-10T02:45:03;3.20;99.90
70269;DHT22;58514;48.398;-4.274;2022-12-10T02:47:29;3.30;99.90
70269;DHT22;58514;48.398;-4.274;2022-12-10T02:49:55;3.30;99.90
70269;DHT22;58514;48.398;-4.274;2022-12-10T02:52:22;3.30;99.90
70269;DHT22;58514;48.398;-4.274;2022-12-10T02:54:48;3.30;99.90
70269;DHT22;58514;48.398;-4.274;2022-12-10T03:02:24;3.20;99.90
70269;DHT22;58514;48.398;-4.274;2022-12-10T03:07:18;3.20;99.90
70269;DHT22;58514;48.398;-4.274;2022-12-10T03:09:53;3.20;99.90
70269;DHT22;58514;48.398;-4.274;2022-12-10T03:12:31;3.20;99.90
70269;DHT22;58514;48.398;-4.274;2022-12-10T03:15:03;3.20;99.90
70269;DHT22;58514;48.398;-4.274;2022-12-10T03:17:30;3.20;99.90
70269;DHT22;58514;48.398;-4.274;2022-12-10T03:19:57;3.20;99.90
70269;DHT22;58514;48.398;-4.274;2022-12-10T03:22:23;3.20;99.90
70269;DHT22;58514;48.398;-4.274;2022-12-10T03:24:49;3.10;99.90
70269;DHT22;58514;48.398;-4.274;2022-12-10T03:27:16;3.10;99.90
70269;DHT22;58514;48.398;-4.274;2022-12-10T03:32:07;3.10;99.90
70269;DHT22;58514;48.398;-4.274;2022-12-10T03:34:33;3.00;99.90
70269;DHT22;58514;48.398;-4.274;2022-12-10T03:36:59;3.00;99.90
70269;DHT22;58514;48.398;-4.274;2022-12-10T03:39:26;3.00;99.90
70269;DHT22;58514;48.398;-4.274;2022-12-10T03:41:51;3.00;99.90
70269;DHT22;58514;48.398;-4.274;2022-12-10T03:44:30;3.00;99.90
70269;DHT22;58514;48.398;-4.274;2022-12-10T03:46:56;2.90;99.90
70269;DHT22;58514;48.398;-4.274;2022-12-10T03:49:22;2.90;99.90
70269;DHT22;58514;48.398;-4.274;2022-12-10T03:51:47;2.90;99.90
70269;DHT22;58514;48.398;-4.274;2022-12-10T03:54:13;2.90;99.90
70269;DHT22;58514;48.398;-4.274;2022-12-10T03:56:38;2.80;99.90
70269;DHT22;58514;48.398;-4.274;2022-12-10T03:59:04;2.80;99.90
70269;DHT22;58514;48.398;-4.274;2022-12-10T04:01:29;2.80;99.90
70269;DHT22;58514;48.398;-4.274;2022-12-10T04:03:55;2.80;99.90
70269;DHT22;58514;48.398;-4.274;2022-12-10T04:06:20;2.70;99.90
70269;DHT22;58514;48.398;-4.274;2022-12-10T04:08:46;2.70;99.90
70269;DHT22;58514;48.398;-4.274;2022-12-10T04:11:12;2.70;99.90
70269;DHT22;58514;48.398;-4.274;2022-12-10T04:13:38;2.70;99.90
70269;DHT22;58514;48.398;-4.274;2022-12-10T04:16:23;2.70;99.90
70269;DHT22;58514;48.398;-4.274;2022-12-10T04:18:51;2.70;99.90
70269;DHT22;58514;48.398;-4.274;2022-12-10T04:21:17;2.70;99.90
70269;DHT22;58514;48.398;-4.274;2022-12-10T04:24:01;2.70;99.90
70269;DHT22;58514;48.398;-4.274;2022-12-10T04:26:46;2.70;99.90
70269;DHT22;58514;48.398;-4.274;2022-12-10T04:29:21;2.70;99.90
70269;DHT22;58514;48.398;-4.274;2022-12-10T04:31:47;2.70;99.90
70269;DHT22;58514;48.398;-4.274;2022-12-10T04:34:12;2.70;99.90
70269;DHT22;58514;48.398;-4.274;2022-12-10T04:36:38;2.70;99.90
70269;DHT22;58514;48.398;-4.274;2022-12-10T04:39:03;2.70;99.90
70269;DHT22;58514;48.398;-4.274;2022-12-10T04:41:29;2.70;99.90
70269;DHT22;58514;48.398;-4.274;2022-12-10T04:43:55;2.70;99.90
70269;DHT22;58514;48.398;-4.274;2022-12-10T04:46:20;2.70;99.90
70269;DHT22;58514;48.398;-4.274;2022-12-10T04:48:46;2.70;99.90
70269;DHT22;58514;48.398;-4.274;2022-12-10T04:51:11;2.70;99.90
70269;DHT22;58514;48.398;-4.274;2022-12-10T04:53:37;2.70;99.90
70269;DHT22;58514;48.398;-4.274;2022-12-10T04:56:03;2.70;99.90
70269;DHT22;58514;48.398;-4.274;2022-12-10T04:58:30;2.70;99.90
70269;DHT22;58514;48.398;-4.274;2022-12-10T05:01:02;2.60;99.90
70269;DHT22;58514;48.398;-4.274;2022-12-10T05:03:28;2.60;99.90
70269;DHT22;58514;48.398;-4.274;2022-12-10T05:05:54;2.60;99.90
70269;DHT22;58514;48.398;-4.274;2022-12-10T05:08:19;2.60;99.90
70269;DHT22;58514;48.398;-4.274;2022-12-10T05:10:45;2.60;99.90
70269;DHT22;58514;48.398;-4.274;2022-12-10T05:13:10;2.70;99.90
70269;DHT22;58514;48.398;-4.274;2022-12-10T05:15:39;2.70;99.90
70269;DHT22;58514;48.398;-4.274;2022-12-10T05:18:04;2.70;99.90
70269;DHT22;58514;48.398;-4.274;2022-12-10T05:20:30;2.70;99.90
70269;DHT22;58514;48.398;-4.274;2022-12-10T05:22:55;2.70;99.90
70269;DHT22;58514;48.398;-4.274;2022-12-10T05:25:40;2.70;99.90
70269;DHT22;58514;48.398;-4.274;2022-12-10T05:28:21;2.70;99.90
70269;DHT22;58514;48.398;-4.274;2022-12-10T05:30:47;2.70;99.90
70269;DHT22;58514;48.398;-4.274;2022-12-10T05:33:13;2.70;99.90
70269;DHT22;58514;48.398;-4.274;2022-12-10T05:35:38;2.70;99.90
70269;DHT22;58514;48.398;-4.274;2022-12-10T05:38:04;2.60;99.90
70269;DHT22;58514;48.398;-4.274;2022-12-10T05:40:33;2.70;99.90
70269;DHT22;58514;48.398;-4.274;2022-12-10T05:42:59;2.70;99.90
70269;DHT22;58514;48.398;-4.274;2022-12-10T05:45:25;2.70;99.90
70269;DHT22;58514;48.398;-4.274;2022-12-10T05:47:50;2.70;99.90
70269;DHT22;58514;48.398;-4.274;2022-12-10T05:50:16;2.70;99.90
70269;DHT22;58514;48.398;-4.274;2022-12-10T05:52:41;2.70;99.90
70269;DHT22;58514;48.398;-4.274;2022-12-10T05:55:07;2.70;99.90
70269;DHT22;58514;48.398;-4.274;2022-12-10T05:57:32;2.70;99.90
70269;DHT22;58514;48.398;-4.274;2022-12-10T05:59:58;2.70;99.90
70269;DHT22;58514;48.398;-4.274;2022-12-10T06:02:23;2.80;99.90
70269;DHT22;58514;48.398;-4.274;2022-12-10T06:04:49;2.80;99.90
70269;DHT22;58514;48.398;-4.274;2022-12-10T06:07:15;2.80;99.90
70269;DHT22;58514;48.398;-4.274;2022-12-10T06:09:40;2.90;99.90
70269;DHT22;58514;48.398;-4.274;2022-12-10T06:12:06;2.80;99.90
70269;DHT22;58514;48.398;-4.274;2022-12-10T06:14:32;2.80;99.90
70269;DHT22;58514;48.398;-4.274;2022-12-10T06:16:57;2.80;99.90
70269;DHT22;58514;48.398;-4.274;2022-12-10T06:19:23;2.80;99.90
70269;DHT22;58514;48.398;-4.274;2022-12-10T06:21:48;2.80;99.90
70269;DHT22;58514;48.398;-4.274;2022-12-10T06:24:14;2.80;99.90
70269;DHT22;58514;48.398;-4.274;2022-12-10T06:26:39;2.80;99.90
70269;DHT22;58514;48.398;-4.274;2022-12-10T06:29:05;2.80;99.90
70269;DHT22;58514;48.398;-4.274;2022-12-10T06:31:30;2.80;99.90
70269;DHT22;58514;48.398;-4.274;2022-12-10T06:33:56;2.80;99.90
70269;DHT22;58514;48.398;-4.274;2022-12-10T06:36:21;2.80;99.90
70269;DHT22;58514;48.398;-4.274;2022-12-10T06:38:47;2.80;99.90
70269;DHT22;58514;48.398;-4.274;2022-12-10T06:41:13;2.80;99.90
70269;DHT22;58514;48.398;-4.274;2022-12-10T06:43:39;2.80;99.90
70269;DHT22;58514;48.398;-4.274;2022-12-10T06:46:09;2.80;99.90
70269;DHT22;58514;48.398;-4.274;2022-12-10T06:48:35;2.80;99.90
70269;DHT22;58514;48.398;-4.274;2022-12-10T06:51:01;2.80;99.90
70269;DHT22;58514;48.398;-4.274;2022-12-10T06:53:27;2.70;99.90
70269;DHT22;58514;48.398;-4.274;2022-12-10T06:55:53;2.70;99.90
70269;DHT22;58514;48.398;-4.274;2022-12-10T06:58:18;2.70;99.90
70269;DHT22;58514;48.398;-4.274;2022-12-10T07:00:44;2.70;99.90
70269;DHT22;58514;48.398;-4.274;2022-12-10T07:03:09;2.70;99.90
70269;DHT22;58514;48.398;-4.274;2022-12-10T07:05:35;2.70;99.90
70269;DHT22;58514;48.398;-4.274;2022-12-10T07:08:00;2.60;99.90
70269;DHT22;58514;48.398;-4.274;2022-12-10T07:10:26;2.60;99.90
70269;DHT22;58514;48.398;-4.274;2022-12-10T07:12:51;2.60;99.90
70269;DHT22;58514;48.398;-4.274;2022-12-10T07:15:17;2.60;99.90
70269;DHT22;58514;48.398;-4.274;2022-12-10T07:17:42;2.60;99.90
70269;DHT22;58514;48.398;-4.274;2022-12-10T07:20:08;2.50;99.90
70269;DHT22;58514;48.398;-4.274;2022-12-10T07:22:34;2.50;99.90
70269;DHT22;58514;48.398;-4.274;2022-12-10T07:24:59;2.50;99.90
70269;DHT22;58514;48.398;-4.274;2022-12-10T07:27:25;2.50;99.90
70269;DHT22;58514;48.398;-4.274;2022-12-10T07:29:50;2.50;99.90
70269;DHT22;58514;48.398;-4.274;2022-12-10T07:32:17;2.50;99.90
70269;DHT22;58514;48.398;-4.274;2022-12-10T07:34:42;2.50;99.90
70269;DHT22;58514;48.398;-4.274;2022-12-10T07:37:08;2.50;99.90
70269;DHT22;58514;48.398;-4.274;2022-12-10T07:39:33;2.60;99.90
70269;DHT22;58514;48.398;-4.274;2022-12-10T07:41:59;2.60;99.90
70269;DHT22;58514;48.398;-4.274;2022-12-10T07:44:25;2.60;99.90
70269;DHT22;58514;48.398;-4.274;2022-12-10T07:46:52;2.60;99.90
70269;DHT22;58514;48.398;-4.274;2022-12-10T07:49:17;2.70;99.90
70269;DHT22;58514;48.398;-4.274;2022-12-10T07:51:44;2.70;99.90
70269;DHT22;58514;48.398;-4.274;2022-12-10T07:54:11;2.70;99.90
70269;DHT22;58514;48.398;-4.274;2022-12-10T07:56:36;2.70;99.90
70269;DHT22;58514;48.398;-4.274;2022-12-10T07:59:02;2.70;99.90
70269;DHT22;58514;48.398;-4.274;2022-12-10T08:01:27;2.70;99.90
70269;DHT22;58514;48.398;-4.274;2022-12-10T08:03:54;2.70;99.90
70269;DHT22;58514;48.398;-4.274;2022-12-10T08:06:21;2.80;99.90
70269;DHT22;58514;48.398;-4.274;2022-12-10T08:08:47;2.70;99.90
70269;DHT22;58514;48.398;-4.274;2022-12-10T08:11:15;2.70;99.90
70269;DHT22;58514;48.398;-4.274;2022-12-10T08:13:42;2.70;99.90
70269;DHT22;58514;48.398;-4.274;2022-12-10T08:16:12;2.70;99.90
70269;DHT22;58514;48.398;-4.274;2022-12-10T08:18:37;2.70;99.90
70269;DHT22;58514;48.398;-4.274;2022-12-10T08:21:13;2.70;99.90
70269;DHT22;58514;48.398;-4.274;2022-12-10T08:23:39;2.70;99.90
70269;DHT22;58514;48.398;-4.274;2022-12-10T08:26:05;2.70;99.90
70269;DHT22;58514;48.398;-4.274;2022-12-10T08:28:31;2.70;99.90
70269;DHT22;58514;48.398;-4.274;2022-12-10T08:30:57;2.80;99.90
70269;DHT22;58514;48.398;-4.274;2022-12-10T08:33:22;2.80;99.90
70269;DHT22;58514;48.398;-4.274;2022-12-10T08:35:48;2.80;99.90
70269;DHT22;58514;48.398;-4.274;2022-12-10T08:38:14;2.80;99.90
70269;DHT22;58514;48.398;-4.274;2022-12-10T08:40:40;2.80;99.90
70269;DHT22;58514;48.398;-4.274;2022-12-10T08:43:06;2.80;99.90
70269;DHT22;58514;48.398;-4.274;2022-12-10T08:45:31;2.80;99.90
70269;DHT22;58514;48.398;-4.274;2022-12-10T08:47:57;2.90;99.90
70269;DHT22;58514;48.398;-4.274;2022-12-10T08:50:22;2.90;99.90
70269;DHT22;58514;48.398;-4.274;2022-12-10T08:52:48;2.90;99.90
70269;DHT22;58514;48.398;-4.274;2022-12-10T08:55:13;2.90;99.90
70269;DHT22;58514;48.398;-4.274;2022-12-10T08:57:39;2.90;99.90
70269;DHT22;58514;48.398;-4.274;2022-12-10T09:00:05;2.90;99.90
70269;DHT22;58514;48.398;-4.274;2022-12-10T09:02:32;3.00;99.90
70269;DHT22;58514;48.398;-4.274;2022-12-10T09:04:58;3.00;99.90
70269;DHT22;58514;48.398;-4.274;2022-12-10T09:07:23;3.00;99.90
70269;DHT22;58514;48.398;-4.274;2022-12-10T09:09:49;3.00;99.90
70269;DHT22;58514;48.398;-4.274;2022-12-10T09:12:14;3.00;99.90
70269;DHT22;58514;48.398;-4.274;2022-12-10T09:14:40;3.00;99.90
70269;DHT22;58514;48.398;-4.274;2022-12-10T09:17:07;3.10;99.90
70269;DHT22;58514;48.398;-4.274;2022-12-10T09:19:33;3.10;99.90
70269;DHT22;58514;48.398;-4.274;2022-12-10T09:21:58;3.20;99.90
70269;DHT22;58514;48.398;-4.274;2022-12-10T09:24:24;3.20;99.90
70269;DHT22;58514;48.398;-4.274;2022-12-10T09:26:50;3.30;99.90
70269;DHT22;58514;48.398;-4.274;2022-12-10T09:29:15;3.40;99.90
70269;DHT22;58514;48.398;-4.274;2022-12-10T09:31:41;3.40;99.90
70269;DHT22;58514;48.398;-4.274;2022-12-10T09:34:06;3.40;99.90
70269;DHT22;58514;48.398;-4.274;2022-12-10T09:36:32;3.50;99.90
70269;DHT22;58514;48.398;-4.274;2022-12-10T09:38:57;3.50;99.90
70269;DHT22;58514;48.398;-4.274;2022-12-10T09:46:25;3.60;99.90
70269;DHT22;58514;48.398;-4.274;2022-12-10T09:51:37;3.70;99.90
70269;DHT22;58514;48.398;-4.274;2022-12-10T09:54:04;3.70;99.90
70269;DHT22;58514;48.398;-4.274;2022-12-10T09:56:36;3.80;99.90
70269;DHT22;58514;48.398;-4.274;2022-12-10T09:59:06;3.80;99.90
70269;DHT22;58514;48.398;-4.274;2022-12-10T10:01:36;3.90;99.90
70269;DHT22;58514;48.398;-4.274;2022-12-10T10:04:03;4.00;99.90
70269;DHT22;58514;48.398;-4.274;2022-12-10T10:06:29;4.00;99.90
70269;DHT22;58514;48.398;-4.274;2022-12-10T10:08:55;4.10;99.90
70269;DHT22;58514;48.398;-4.274;2022-12-10T10:11:23;4.20;99.90
70269;DHT22;58514;48.398;-4.274;2022-12-10T10:19:03;4.40;99.90
70269;DHT22;58514;48.398;-4.274;2022-12-10T10:21:31;4.50;99.90
70269;DHT22;58514;48.398;-4.274;2022-12-10T10:23:58;4.60;99.90
70269;DHT22;58514;48.398;-4.274;2022-12-10T10:26:24;4.60;99.90
70269;DHT22;58514;48.398;-4.274;2022-12-10T10:28:52;4.60;99.90
70269;DHT22;58514;48.398;-4.274;2022-12-10T10:31:20;4.70;99.90
70269;DHT22;58514;48.398;-4.274;2022-12-10T10:33:48;4.70;99.90
70269;DHT22;58514;48.398;-4.274;2022-12-10T10:36:15;4.60;99.90
70269;DHT22;58514;48.398;-4.274;2022-12-10T10:38:43;4.70;99.90
70269;DHT22;58514;48.398;-4.274;2022-12-10T10:41:12;4.60;99.90
70269;DHT22;58514;48.398;-4.274;2022-12-10T10:43:40;4.60;99.90
70269;DHT22;58514;48.398;-4.274;2022-12-10T10:46:11;4.60;99.90
70269;DHT22;58514;48.398;-4.274;2022-12-10T10:48:37;4.70;99.90
70269;DHT22;58514;48.398;-4.274;2022-12-10T10:53:44;4.70;99.90
70269;DHT22;58514;48.398;-4.274;2022-12-10T10:56:17;4.80;99.90
70269;DHT22;58514;48.398;-4.274;2022-12-10T10:59:05;4.80;99.90
70269;DHT22;58514;48.398;-4.274;2022-12-10T11:01:49;4.80;99.90
70269;DHT22;58514;48.398;-4.274;2022-12-10T11:04:15;4.90;99.90
70269;DHT22;58514;48.398;-4.274;2022-12-10T11:06:41;4.90;99.90
70269;DHT22;58514;48.398;-4.274;2022-12-10T11:09:07;4.90;99.90
70269;DHT22;58514;48.398;-4.274;2022-12-10T11:11:33;4.90;99.90
70269;DHT22;58514;48.398;-4.274;2022-12-10T11:16:44;4.90;99.90
70269;DHT22;58514;48.398;-4.274;2022-12-10T11:19:16;5.00;99.90
70269;DHT22;58514;48.398;-4.274;2022-12-10T11:21:43;5.00;99.90
70269;DHT22;58514;48.398;-4.274;2022-12-10T11:24:10;5.10;99.90
70269;DHT22;58514;48.398;-4.274;2022-12-10T11:29:09;5.20;99.90
70269;DHT22;58514;48.398;-4.274;2022-12-10T11:31:40;5.20;99.90
70269;DHT22;58514;48.398;-4.274;2022-12-10T11:36:49;5.30;99.90
70269;DHT22;58514;48.398;-4.274;2022-12-10T11:42:01;5.50;99.90
70269;DHT22;58514;48.398;-4.274;2022-12-10T11:52:12;5.80;99.90
70269;DHT22;58514;48.398;-4.274;2022-12-10T11:54:51;5.90;99.90
70269;DHT22;58514;48.398;-4.274;2022-12-10T11:57:30;6.00;99.90
70269;DHT22;58514;48.398;-4.274;2022-12-10T12:00:03;6.20;99.90
70269;DHT22;58514;48.398;-4.274;2022-12-10T12:13:07;6.60;99.90
70269;DHT22;58514;48.398;-4.274;2022-12-10T12:15:29;6.70;99.90
70269;DHT22;58514;48.398;-4.274;2022-12-10T12:18:04;6.70;99.90
70269;DHT22;58514;48.398;-4.274;2022-12-10T12:20:32;6.70;99.90
70269;DHT22;58514;48.398;-4.274;2022-12-10T12:23:01;6.70;99.90
70269;DHT22;58514;48.398;-4.274;2022-12-10T12:25:30;6.70;99.90
70269;DHT22;58514;48.398;-4.274;2022-12-10T12:27:59;6.70;99.90
70269;DHT22;58514;48.398;-4.274;2022-12-10T12:30:29;6.80;99.90
70269;DHT22;58514;48.398;-4.274;2022-12-10T12:35:23;6.90;99.90
70269;DHT22;58514;48.398;-4.274;2022-12-10T12:37:54;6.90;99.90
70269;DHT22;58514;48.398;-4.274;2022-12-10T12:40:29;7.00;99.90
70269;DHT22;58514;48.398;-4.274;2022-12-10T12:42:59;7.00;99.90
70269;DHT22;58514;48.398;-4.274;2022-12-10T12:45:33;6.90;99.90
70269;DHT22;58514;48.398;-4.274;2022-12-10T12:50:32;6.90;99.90
70269;DHT22;58514;48.398;-4.274;2022-12-10T12:53:02;6.90;99.90
70269;DHT22;58514;48.398;-4.274;2022-12-10T12:55:37;6.90;99.90
70269;DHT22;58514;48.398;-4.274;2022-12-10T13:00:30;6.90;99.90
70269;DHT22;58514;48.398;-4.274;2022-12-10T13:05:45;6.90;99.90
70269;DHT22;58514;48.398;-4.274;2022-12-10T13:15:55;6.90;99.90
70269;DHT22;58514;48.398;-4.274;2022-12-10T13:28:17;6.60;99.90
70269;DHT22;58514;48.398;-4.274;2022-12-10T13:30:47;6.50;99.90
70269;DHT22;58514;48.398;-4.274;2022-12-10T13:36:11;6.40;99.90
70269;DHT22;58514;48.398;-4.274;2022-12-10T13:38:41;6.40;99.90
70269;DHT22;58514;48.398;-4.274;2022-12-10T13:41:07;6.30;99.90
70269;DHT22;58514;48.398;-4.274;2022-12-10T13:43:52;6.30;99.90
70269;DHT22;58514;48.398;-4.274;2022-12-10T13:49:24;6.30;99.90
70269;DHT22;58514;48.398;-4.274;2022-12-10T13:59:25;6.30;99.90
70269;DHT22;58514;48.398;-4.274;2022-12-10T14:02:37;6.30;99.90
70269;DHT22;58514;48.398;-4.274;2022-12-10T14:07:09;6.40;99.90
70269;DHT22;58514;48.398;-4.274;2022-12-10T14:09:39;6.50;99.90
70269;DHT22;58514;48.398;-4.274;2022-12-10T14:12:29;6.50;99.90
70269;DHT22;58514;48.398;-4.274;2022-12-10T14:14:54;6.50;99.90
70269;DHT22;58514;48.398;-4.274;2022-12-10T14:17:21;6.40;99.90
70269;DHT22;58514;48.398;-4.274;2022-12-10T14:19:49;6.40;99.90
70269;DHT22;58514;48.398;-4.274;2022-12-10T14:22:19;6.40;99.90
70269;DHT22;58514;48.398;-4.274;2022-12-10T14:24:47;6.40;99.90
70269;DHT22;58514;48.398;-4.274;2022-12-10T14:27:14;6.40;99.90
70269;DHT22;58514;48.398;-4.274;2022-12-10T14:29:44;6.40;99.90
70269;DHT22;58514;48.398;-4.274;2022-12-10T14:32:12;6.30;99.90
70269;DHT22;58514;48.398;-4.274;2022-12-10T14:34:39;6.30;99.90
70269;DHT22;58514;48.398;-4.274;2022-12-10T14:37:04;6.30;99.90
70269;DHT22;58514;48.398;-4.274;2022-12-10T14:39:32;6.30;99.90
70269;DHT22;58514;48.398;-4.274;2022-12-10T14:42:02;6.30;99.90
70269;DHT22;58514;48.398;-4.274;2022-12-10T14:44:28;6.30;99.90
70269;DHT22;58514;48.398;-4.274;2022-12-10T14:47:05;6.30;99.90
70269;DHT22;58514;48.398;-4.274;2022-12-10T14:49:31;6.30;99.90
70269;DHT22;58514;48.398;-4.274;2022-12-10T14:51:57;6.30;99.90
70269;DHT22;58514;48.398;-4.274;2022-12-10T14:54:27;6.30;99.90
70269;DHT22;58514;48.398;-4.274;2022-12-10T14:56:54;6.30;99.90
70269;DHT22;58514;48.398;-4.274;2022-12-10T14:59:21;6.30;99.90
70269;DHT22;58514;48.398;-4.274;2022-12-10T15:01:50;6.30;99.90
70269;DHT22;58514;48.398;-4.274;2022-12-10T15:04:18;6.30;99.90
70269;DHT22;58514;48.398;-4.274;2022-12-10T15:06:44;6.30;99.90
70269;DHT22;58514;48.398;-4.274;2022-12-10T15:09:21;6.20;99.90
70269;DHT22;58514;48.398;-4.274;2022-12-10T15:11:57;6.10;99.90
70269;DHT22;58514;48.398;-4.274;2022-12-10T15:14:23;6.10;99.90
70269;DHT22;58514;48.398;-4.274;2022-12-10T15:16:50;6.00;99.90
70269;DHT22;58514;48.398;-4.274;2022-12-10T15:19:17;6.00;99.90
70269;DHT22;58514;48.398;-4.274;2022-12-10T15:21:44;5.90;99.90
70269;DHT22;58514;48.398;-4.274;2022-12-10T15:24:14;5.90;99.90
70269;DHT22;58514;48.398;-4.274;2022-12-10T15:26:42;5.80;99.90
70269;DHT22;58514;48.398;-4.274;2022-12-10T15:29:15;5.80;99.90
70269;DHT22;58514;48.398;-4.274;2022-12-10T15:32:04;5.80;99.90
70269;DHT22;58514;48.398;-4.274;2022-12-10T15:34:29;5.80;99.90
70269;DHT22;58514;48.398;-4.274;2022-12-10T15:37:02;5.80;99.90
70269;DHT22;58514;48.398;-4.274;2022-12-10T15:39:29;5.70;99.90
70269;DHT22;58514;48.398;-4.274;2022-12-10T15:41:56;5.70;99.90
70269;DHT22;58514;48.398;-4.274;2022-12-10T15:49:29;5.70;99.90
70269;DHT22;58514;48.398;-4.274;2022-12-10T15:51:55;5.70;99.90
70269;DHT22;58514;48.398;-4.274;2022-12-10T15:54:28;5.60;99.90
70269;DHT22;58514;48.398;-4.274;2022-12-10T15:56:56;5.60;99.90
70269;DHT22;58514;48.398;-4.274;2022-12-10T15:59:22;5.60;99.90
70269;DHT22;58514;48.398;-4.274;2022-12-10T16:01:48;5.60;99.90
70269;DHT22;58514;48.398;-4.274;2022-12-10T16:04:13;5.60;99.90
70269;DHT22;58514;48.398;-4.274;2022-12-10T16:06:39;5.60;99.90
70269;DHT22;58514;48.398;-4.274;2022-12-10T16:09:05;5.50;99.90
70269;DHT22;58514;48.398;-4.274;2022-12-10T16:11:30;5.50;99.90
70269;DHT22;58514;48.398;-4.274;2022-12-10T16:13:56;5.50;99.90
70269;DHT22;58514;48.398;-4.274;2022-12-10T16:16:22;5.50;99.90
70269;DHT22;58514;48.398;-4.274;2022-12-10T16:18:48;5.50;99.90
70269;DHT22;58514;48.398;-4.274;2022-12-10T16:21:13;5.50;99.90
70269;DHT22;58514;48.398;-4.274;2022-12-10T16:23:39;5.50;99.90
70269;DHT22;58514;48.398;-4.274;2022-12-10T16:26:11;5.50;99.90
70269;DHT22;58514;48.398;-4.274;2022-12-10T16:28:37;5.50;99.90
70269;DHT22;58514;48.398;-4.274;2022-12-10T16:31:03;5.50;99.90
70269;DHT22;58514;48.398;-4.274;2022-12-10T16:33:28;5.50;99.90
70269;DHT22;58514;48.398;-4.274;2022-12-10T16:35:54;5.50;99.90
70269;DHT22;58514;48.398;-4.274;2022-12-10T16:38:21;5.60;99.90
70269;DHT22;58514;48.398;-4.274;2022-12-10T16:40:47;5.60;99.90
70269;DHT22;58514;48.398;-4.274;2022-12-10T16:43:19;5.60;99.90
70269;DHT22;58514;48.398;-4.274;2022-12-10T16:45:45;5.60;99.90
70269;DHT22;58514;48.398;-4.274;2022-12-10T16:48:11;5.50;99.90
70269;DHT22;58514;48.398;-4.274;2022-12-10T16:50:37;5.60;99.90
70269;DHT22;58514;48.398;-4.274;2022-12-10T16:53:06;5.50;99.90
70269;DHT22;58514;48.398;-4.274;2022-12-10T16:55:32;5.50;99.90
70269;DHT22;58514;48.398;-4.274;2022-12-10T16:57:58;5.50;99.90
70269;DHT22;58514;48.398;-4.274;2022-12-10T17:00:24;5.50;99.90
70269;DHT22;58514;48.398;-4.274;2022-12-10T17:02:50;5.40;99.90
70269;DHT22;58514;48.398;-4.274;2022-12-10T17:05:17;5.40;99.90
70269;DHT22;58514;48.398;-4.274;2022-12-10T17:07:44;5.30;99.90
70269;DHT22;58514;48.398;-4.274;2022-12-10T17:10:10;5.30;99.90
70269;DHT22;58514;48.398;-4.274;2022-12-10T17:12:36;5.30;99.90
70269;DHT22;58514;48.398;-4.274;2022-12-10T17:15:02;5.20;99.90
70269;DHT22;58514;48.398;-4.274;2022-12-10T17:17:29;5.20;99.90
70269;DHT22;58514;48.398;-4.274;2022-12-10T17:19:54;5.10;99.90
70269;DHT22;58514;48.398;-4.274;2022-12-10T17:22:20;5.10;99.90
70269;DHT22;58514;48.398;-4.274;2022-12-10T17:24:46;5.00;99.90
70269;DHT22;58514;48.398;-4.274;2022-12-10T17:27:14;5.00;99.90
70269;DHT22;58514;48.398;-4.274;2022-12-10T17:29:41;5.00;99.90
70269;DHT22;58514;48.398;-4.274;2022-12-10T17:32:11;5.00;99.90
70269;DHT22;58514;48.398;-4.274;2022-12-10T17:34:38;5.00;99.90